createdAt,value
2019-03-16T00:00:39.347Z,0.00
2019-03-16T00:01:39.375Z,0.00
2019-03-16T00:02:39.400Z,0.00
2019-03-16T00:03:39.429Z,0.00
2019-03-16T00:04:39.453Z,0.00
2019-03-16T00:05:39.482Z,0.00
2019-03-16T00:06:39.508Z,0.00
2019-03-16T00:07:39.539Z,0.00
2019-03-16T00:08:39.565Z,0.00
2019-03-16T00:09:39.588Z,0.00
2019-03-16T00:10:39.618Z,0.00
2019-03-16T00:11:39.674Z,0.00
2019-03-16T00:12:39.674Z,0.00
2019-03-16T00:13:39.693Z,0.00
2019-03-16T00:14:39.723Z,0.00
2019-03-16T00:15:39.753Z,0.00
2019-03-16T00:16:39.775Z,0.00
2019-03-16T00:17:39.802Z,0.00
2019-03-16T00:18:39.830Z,0.00
2019-03-16T00:19:39.858Z,0.00
2019-03-16T00:20:39.884Z,0.00
2019-03-16T00:21:39.911Z,0.00
2019-03-16T00:22:39.938Z,0.00
2019-03-16T00:23:39.967Z,0.00
2019-03-16T00:24:39.989Z,0.00
2019-03-16T00:25:40.016Z,0.00
2019-03-16T00:26:40.045Z,0.00
2019-03-16T00:27:40.073Z,0.00
2019-03-16T00:28:40.099Z,0.00
2019-03-16T00:29:40.127Z,0.00
2019-03-16T00:30:40.153Z,0.00
2019-03-16T00:31:40.181Z,0.00
2019-03-16T00:32:40.210Z,0.00
2019-03-16T00:33:40.233Z,0.00
2019-03-16T00:34:40.262Z,0.00
2019-03-16T00:35:40.288Z,0.00
2019-03-16T00:36:40.311Z,0.00
2019-03-16T00:37:40.339Z,0.00
2019-03-16T00:38:40.374Z,0.00
2019-03-16T00:39:40.396Z,0.00
2019-03-16T00:40:40.420Z,0.00
2019-03-16T00:41:40.449Z,0.00
2019-03-16T00:42:40.473Z,0.00
2019-03-16T00:43:40.507Z,0.00
2019-03-16T00:44:40.526Z,0.00
2019-03-16T00:45:40.556Z,0.00
2019-03-16T00:46:40.582Z,0.00
2019-03-16T00:47:40.615Z,0.00
2019-03-16T00:48:40.636Z,0.00
2019-03-16T00:49:40.664Z,0.00
2019-03-16T00:50:40.689Z,0.00
2019-03-16T00:51:40.718Z,0.00
2019-03-16T00:52:40.742Z,0.00
2019-03-16T00:53:40.770Z,0.00
2019-03-16T00:54:40.796Z,0.00
2019-03-16T00:55:40.823Z,0.00
2019-03-16T00:56:40.850Z,0.00
2019-03-16T00:57:40.879Z,0.00
2019-03-16T00:58:40.905Z,0.00
2019-03-16T00:59:40.931Z,0.00
2019-03-16T01:00:40.956Z,0.00
2019-03-16T01:01:40.987Z,0.00
2019-03-16T01:02:41.011Z,0.00
2019-03-16T01:03:41.041Z,0.00
2019-03-16T01:04:41.065Z,0.00
2019-03-16T01:05:41.093Z,0.00
2019-03-16T01:06:41.119Z,0.00
2019-03-16T01:07:41.146Z,0.00
2019-03-16T01:08:41.171Z,0.00
2019-03-16T01:09:43.594Z,0.00
2019-03-16T01:10:41.228Z,0.00
2019-03-16T01:11:41.253Z,0.00
2019-03-16T01:12:41.280Z,0.00
2019-03-16T01:13:41.309Z,0.00
2019-03-16T01:14:41.331Z,0.00
2019-03-16T01:15:41.364Z,0.00
2019-03-16T01:16:41.386Z,0.00
2019-03-16T01:17:41.414Z,0.00
2019-03-16T01:18:41.443Z,0.00
2019-03-16T01:19:41.468Z,0.00
2019-03-16T01:20:41.494Z,0.00
2019-03-16T01:21:41.521Z,0.00
2019-03-16T01:22:41.561Z,0.00
2019-03-16T01:23:41.579Z,0.00
2019-03-16T01:24:41.605Z,0.00
2019-03-16T01:25:41.627Z,0.00
2019-03-16T01:26:41.657Z,0.00
2019-03-16T01:27:41.683Z,0.00
2019-03-16T01:28:41.710Z,0.00
2019-03-16T01:29:41.736Z,0.00
2019-03-16T01:30:41.764Z,0.00
2019-03-16T01:31:41.792Z,0.00
2019-03-16T01:32:41.818Z,0.00
2019-03-16T01:33:41.853Z,0.00
2019-03-16T01:34:44.235Z,0.00
2019-03-16T01:35:41.901Z,0.00
2019-03-16T01:36:41.926Z,0.00
2019-03-16T01:37:41.953Z,0.00
2019-03-16T01:38:41.978Z,0.00
2019-03-16T01:39:42.006Z,0.00
2019-03-16T01:40:42.031Z,0.00
2019-03-16T01:41:42.060Z,0.00
2019-03-16T01:42:42.086Z,0.00
2019-03-16T01:43:42.113Z,0.00
2019-03-16T01:44:42.140Z,0.00
2019-03-16T01:45:42.171Z,0.00
2019-03-16T01:46:42.194Z,0.00
2019-03-16T01:47:42.221Z,0.00
2019-03-16T01:48:42.254Z,0.00
2019-03-16T01:49:42.275Z,0.00
2019-03-16T01:50:42.304Z,0.00
2019-03-16T01:51:42.330Z,0.00
2019-03-16T01:52:42.358Z,0.00
2019-03-16T01:53:42.383Z,0.00
2019-03-16T01:54:42.409Z,0.00
2019-03-16T01:55:42.442Z,0.00
2019-03-16T01:56:42.460Z,0.00
2019-03-16T01:57:42.490Z,0.00
2019-03-16T01:58:42.518Z,0.00
2019-03-16T01:59:42.543Z,0.00
2019-03-16T02:00:42.573Z,0.00
2019-03-16T02:01:42.599Z,0.00
2019-03-16T02:02:54.196Z,0.00
2019-03-16T02:03:42.657Z,0.00
2019-03-16T02:04:42.678Z,0.00
2019-03-16T02:05:42.704Z,0.00
2019-03-16T02:06:42.732Z,0.00
2019-03-16T02:07:42.761Z,0.00
2019-03-16T02:08:42.790Z,0.00
2019-03-16T02:09:42.816Z,0.00
2019-03-16T02:10:42.840Z,0.00
2019-03-16T02:11:42.866Z,0.00
2019-03-16T02:12:42.894Z,0.00
2019-03-16T02:13:42.922Z,0.00
2019-03-16T02:14:42.946Z,0.00
2019-03-16T02:15:42.978Z,0.00
2019-03-16T02:16:43.002Z,0.00
2019-03-16T02:17:43.027Z,0.00
2019-03-16T02:18:43.055Z,0.00
2019-03-16T02:19:43.083Z,0.00
2019-03-16T02:20:43.108Z,0.00
2019-03-16T02:21:43.282Z,0.00
2019-03-16T02:22:43.163Z,0.00
2019-03-16T02:23:43.194Z,0.00
2019-03-16T02:24:43.217Z,0.00
2019-03-16T02:25:43.244Z,0.00
2019-03-16T02:26:43.273Z,0.00
2019-03-16T02:27:43.300Z,0.00
2019-03-16T02:28:43.323Z,0.00
2019-03-16T02:29:43.352Z,0.00
2019-03-16T02:30:43.379Z,0.00
2019-03-16T02:31:43.407Z,0.00
2019-03-16T02:32:43.435Z,0.00
2019-03-16T02:33:43.469Z,0.00
2019-03-16T02:34:43.486Z,0.00
2019-03-16T02:35:43.526Z,0.00
2019-03-16T02:36:43.542Z,0.00
2019-03-16T02:37:43.573Z,0.00
2019-03-16T02:38:43.593Z,0.00
2019-03-16T02:39:43.620Z,0.00
2019-03-16T02:40:43.653Z,0.00
2019-03-16T02:41:43.676Z,0.00
2019-03-16T02:42:43.703Z,0.00
2019-03-16T02:43:43.734Z,0.00
2019-03-16T02:44:43.755Z,0.00
2019-03-16T02:45:43.783Z,0.00
2019-03-16T02:46:43.815Z,0.00
2019-03-16T02:47:43.836Z,0.00
2019-03-16T02:48:43.865Z,0.00
2019-03-16T02:49:43.891Z,0.00
2019-03-16T02:50:43.915Z,0.00
2019-03-16T02:51:43.947Z,0.00
2019-03-16T02:52:43.979Z,0.00
2019-03-16T02:53:43.996Z,0.00
2019-03-16T02:54:44.024Z,0.00
2019-03-16T02:55:44.050Z,0.00
2019-03-16T02:56:44.085Z,0.00
2019-03-16T02:57:44.105Z,0.00
2019-03-16T02:58:44.150Z,0.00
2019-03-16T02:59:44.160Z,0.00
2019-03-16T03:00:44.183Z,0.00
2019-03-16T03:01:44.212Z,0.00
2019-03-16T03:02:44.243Z,0.00
2019-03-16T03:03:44.267Z,0.00
2019-03-16T03:04:46.172Z,0.00
2019-03-16T03:05:44.320Z,0.00
2019-03-16T03:06:44.360Z,0.00
2019-03-16T03:07:44.371Z,0.00
2019-03-16T03:08:44.398Z,0.00
2019-03-16T03:09:44.427Z,0.00
2019-03-16T03:10:44.456Z,0.00
2019-03-16T03:11:44.479Z,0.00
2019-03-16T03:12:44.509Z,0.00
2019-03-16T03:13:44.552Z,0.00
2019-03-16T03:14:44.560Z,0.00
2019-03-16T03:15:44.586Z,0.00
2019-03-16T03:16:44.612Z,0.00
2019-03-16T03:17:44.651Z,0.00
2019-03-16T03:18:49.155Z,0.00
2019-03-16T03:19:44.695Z,0.00
2019-03-16T03:20:44.719Z,0.00
2019-03-16T03:21:44.749Z,0.00
2019-03-16T03:22:44.773Z,0.00
2019-03-16T03:23:44.801Z,0.00
2019-03-16T03:24:44.934Z,0.00
2019-03-16T03:25:44.854Z,0.00
2019-03-16T03:26:44.881Z,0.00
2019-03-16T03:27:44.914Z,0.00
2019-03-16T03:28:44.932Z,0.00
2019-03-16T03:29:44.962Z,0.00
2019-03-16T03:30:44.993Z,0.00
2019-03-16T03:31:45.017Z,0.00
2019-03-16T03:32:45.050Z,0.00
2019-03-16T03:34:00.356Z,0.00
2019-03-16T03:34:45.094Z,0.00
2019-03-16T03:35:45.120Z,0.00
2019-03-16T03:36:45.150Z,0.00
2019-03-16T03:37:45.175Z,0.00
2019-03-16T03:38:45.199Z,0.00
2019-03-16T03:39:45.227Z,0.00
2019-03-16T03:40:45.260Z,0.00
2019-03-16T03:41:45.288Z,0.00
2019-03-16T03:42:45.305Z,0.00
2019-03-16T03:43:45.333Z,0.00
2019-03-16T03:44:45.361Z,0.00
2019-03-16T03:45:45.389Z,0.00
2019-03-16T03:46:45.417Z,0.00
2019-03-16T03:47:45.444Z,0.00
2019-03-16T03:48:45.467Z,0.00
2019-03-16T03:49:45.494Z,0.00
2019-03-16T03:50:45.521Z,0.00
2019-03-16T03:51:45.548Z,0.00
2019-03-16T03:52:45.574Z,0.00
2019-03-16T03:53:45.605Z,0.00
2019-03-16T03:54:45.626Z,0.00
2019-03-16T03:55:45.655Z,0.00
2019-03-16T03:56:45.682Z,0.00
2019-03-16T03:57:45.709Z,0.00
2019-03-16T03:58:45.737Z,0.00
2019-03-16T03:59:45.765Z,0.00
2019-03-16T04:00:45.786Z,0.00
2019-03-16T04:01:45.813Z,0.00
2019-03-16T04:02:45.842Z,0.00
2019-03-16T04:03:45.867Z,0.00
2019-03-16T04:04:45.895Z,0.00
2019-03-16T04:05:45.919Z,0.00
2019-03-16T04:06:45.946Z,0.00
2019-03-16T04:07:45.981Z,0.00
2019-03-16T04:08:46.012Z,0.00
2019-03-16T04:09:46.026Z,0.00
2019-03-16T04:10:46.052Z,0.00
2019-03-16T04:11:46.080Z,0.00
2019-03-16T04:12:46.105Z,0.00
2019-03-16T04:13:46.133Z,0.00
2019-03-16T04:14:46.163Z,0.00
2019-03-16T04:15:46.187Z,0.00
2019-03-16T04:16:46.212Z,0.00
2019-03-16T04:17:46.241Z,0.00
2019-03-16T04:18:46.269Z,0.00
2019-03-16T04:19:46.294Z,0.00
2019-03-16T04:20:46.322Z,0.00
2019-03-16T04:21:46.392Z,0.00
2019-03-16T04:22:46.374Z,0.00
2019-03-16T04:23:46.401Z,0.00
2019-03-16T04:24:46.430Z,0.00
2019-03-16T04:25:46.455Z,0.00
2019-03-16T04:26:46.497Z,0.00
2019-03-16T04:27:46.510Z,0.00
2019-03-16T04:28:46.535Z,0.00
2019-03-16T04:29:46.565Z,0.00
2019-03-16T04:30:46.591Z,0.00
2019-03-16T04:31:46.617Z,0.00
2019-03-16T04:32:46.645Z,0.00
2019-03-16T04:33:46.672Z,0.00
2019-03-16T04:34:46.699Z,0.00
2019-03-16T04:35:46.729Z,0.00
2019-03-16T04:36:46.750Z,0.00
2019-03-16T04:37:46.778Z,0.00
2019-03-16T04:38:46.805Z,0.00
2019-03-16T04:39:46.834Z,0.00
2019-03-16T04:40:46.859Z,0.00
2019-03-16T04:41:46.891Z,0.00
2019-03-16T04:42:46.911Z,0.00
2019-03-16T04:43:46.940Z,5.63
2019-03-16T04:44:46.968Z,5.63
2019-03-16T04:45:46.993Z,5.63
2019-03-16T04:46:47.021Z,5.63
2019-03-16T04:47:47.049Z,5.63
2019-03-16T04:48:47.075Z,5.63
2019-03-16T04:49:47.104Z,5.63
2019-03-16T04:50:47.131Z,5.63
2019-03-16T04:51:47.155Z,5.63
2019-03-16T04:52:47.185Z,5.63
2019-03-16T04:53:47.213Z,5.63
2019-03-16T04:54:47.237Z,11.25
2019-03-16T04:55:47.282Z,11.25
2019-03-16T04:56:47.290Z,11.25
2019-03-16T04:57:47.320Z,11.25
2019-03-16T04:58:47.345Z,11.25
2019-03-16T04:59:47.371Z,11.25
2019-03-16T05:00:47.401Z,16.88
2019-03-16T05:01:47.425Z,16.88
2019-03-16T05:02:47.454Z,16.88
2019-03-16T05:03:47.479Z,16.88
2019-03-16T05:04:47.509Z,16.88
2019-03-16T05:05:47.533Z,22.50
2019-03-16T05:06:47.563Z,22.50
2019-03-16T05:07:47.588Z,22.50
2019-03-16T05:08:47.614Z,28.13
2019-03-16T05:09:47.648Z,28.13
2019-03-16T05:10:47.674Z,28.13
2019-03-16T05:11:47.709Z,28.13
2019-03-16T05:12:47.723Z,33.75
2019-03-16T05:13:47.752Z,33.75
2019-03-16T05:14:47.782Z,33.75
2019-03-16T05:15:50.719Z,33.75
2019-03-16T05:16:47.831Z,33.75
2019-03-16T05:17:47.860Z,39.38
2019-03-16T05:18:47.889Z,39.38
2019-03-16T05:19:47.915Z,39.38
2019-03-16T05:20:47.941Z,39.38
2019-03-16T05:21:47.968Z,39.38
2019-03-16T05:22:47.996Z,39.38
2019-03-16T05:23:48.024Z,39.38
2019-03-16T05:24:48.050Z,39.38
2019-03-16T05:25:48.076Z,45.00
2019-03-16T05:26:48.103Z,45.00
2019-03-16T05:27:48.131Z,45.00
2019-03-16T05:28:48.157Z,45.00
2019-03-16T05:29:48.197Z,50.63
2019-03-16T05:30:48.214Z,50.63
2019-03-16T05:31:50.658Z,50.63
2019-03-16T05:32:48.269Z,56.25
2019-03-16T05:33:48.295Z,56.25
2019-03-16T05:34:56.534Z,56.25
2019-03-16T05:35:48.352Z,61.88
2019-03-16T05:36:48.375Z,61.88
2019-03-16T05:37:48.406Z,61.88
2019-03-16T05:38:48.434Z,61.88
2019-03-16T05:39:48.460Z,61.88
2019-03-16T05:40:48.485Z,67.50
2019-03-16T05:41:48.519Z,67.50
2019-03-16T05:42:48.541Z,73.13
2019-03-16T05:43:48.568Z,78.75
2019-03-16T05:44:48.595Z,84.38
2019-03-16T05:45:48.623Z,84.38
2019-03-16T05:46:48.650Z,84.38
2019-03-16T05:47:48.677Z,84.38
2019-03-16T05:48:48.704Z,84.38
2019-03-16T05:49:48.731Z,90.00
2019-03-16T05:50:48.759Z,90.00
2019-03-16T05:51:48.789Z,90.00
2019-03-16T05:52:48.812Z,90.00
2019-03-16T05:53:48.842Z,90.00
2019-03-16T05:54:48.872Z,95.63
2019-03-16T05:55:48.897Z,95.63
2019-03-16T05:56:48.924Z,101.25
2019-03-16T05:57:48.953Z,106.88
2019-03-16T05:58:48.979Z,106.88
2019-03-16T05:59:49.009Z,112.50
2019-03-16T06:00:49.036Z,118.13
2019-03-16T06:01:49.064Z,118.13
2019-03-16T06:02:49.091Z,118.13
2019-03-16T06:03:49.118Z,118.13
2019-03-16T06:04:49.146Z,118.13
2019-03-16T06:05:49.174Z,118.13
2019-03-16T06:06:49.204Z,123.75
2019-03-16T06:07:49.252Z,123.75
2019-03-16T06:08:49.256Z,129.38
2019-03-16T06:09:49.291Z,129.38
2019-03-16T06:10:49.312Z,129.38
2019-03-16T06:11:49.342Z,129.38
2019-03-16T06:12:49.369Z,129.38
2019-03-16T06:13:49.396Z,135.00
2019-03-16T06:14:49.425Z,135.00
2019-03-16T06:15:49.455Z,140.63
2019-03-16T06:16:49.481Z,140.63
2019-03-16T06:17:49.513Z,146.25
2019-03-16T06:18:49.539Z,151.88
2019-03-16T06:19:49.565Z,146.25
2019-03-16T06:20:49.594Z,146.25
2019-03-16T06:21:49.624Z,151.88
2019-03-16T06:22:49.654Z,151.88
2019-03-16T06:23:49.679Z,157.50
2019-03-16T06:24:49.707Z,157.50
2019-03-16T06:25:49.738Z,157.50
2019-03-16T06:26:49.764Z,157.50
2019-03-16T06:27:49.796Z,157.50
2019-03-16T06:28:49.823Z,157.50
2019-03-16T06:29:49.849Z,163.13
2019-03-16T06:30:49.878Z,157.50
2019-03-16T06:31:49.907Z,157.50
2019-03-16T06:32:49.933Z,151.88
2019-03-16T06:33:49.960Z,151.88
2019-03-16T06:34:49.992Z,157.50
2019-03-16T06:35:50.021Z,151.88
2019-03-16T06:36:50.049Z,146.25
2019-03-16T06:37:50.082Z,151.88
2019-03-16T06:38:50.105Z,151.88
2019-03-16T06:39:50.136Z,151.88
2019-03-16T06:40:50.164Z,151.88
2019-03-16T06:41:50.193Z,151.88
2019-03-16T06:42:50.219Z,146.25
2019-03-16T06:43:50.252Z,146.25
2019-03-16T06:44:50.277Z,146.25
2019-03-16T06:45:50.307Z,146.25
2019-03-16T06:46:50.335Z,146.25
2019-03-16T06:47:50.364Z,151.88
2019-03-16T06:48:50.390Z,151.88
2019-03-16T06:49:50.418Z,151.88
2019-03-16T06:50:50.449Z,151.88
2019-03-16T06:51:50.476Z,157.50
2019-03-16T06:52:50.507Z,157.50
2019-03-16T06:53:50.536Z,157.50
2019-03-16T06:54:50.562Z,151.88
2019-03-16T06:55:50.590Z,151.88
2019-03-16T06:56:50.621Z,146.25
2019-03-16T06:57:50.653Z,140.63
2019-03-16T06:58:50.678Z,135.00
2019-03-16T06:59:50.707Z,135.00
2019-03-16T07:00:50.736Z,135.00
2019-03-16T07:01:50.768Z,129.38
2019-03-16T07:02:50.794Z,129.38
2019-03-16T07:03:50.909Z,123.75
2019-03-16T07:04:50.847Z,112.50
2019-03-16T07:05:50.877Z,106.88
2019-03-16T07:06:50.907Z,112.50
2019-03-16T07:07:50.938Z,112.50
2019-03-16T07:08:50.966Z,123.75
2019-03-16T07:09:50.992Z,135.00
2019-03-16T07:10:51.027Z,140.63
2019-03-16T07:11:51.048Z,146.25
2019-03-16T07:12:51.084Z,151.88
2019-03-16T07:13:51.105Z,157.50
2019-03-16T07:14:51.135Z,151.88
2019-03-16T07:15:51.169Z,157.50
2019-03-16T07:17:01.301Z,157.50
2019-03-16T07:17:51.226Z,157.50
2019-03-16T07:18:58.662Z,163.13
2019-03-16T07:19:51.280Z,163.13
2019-03-16T07:20:51.309Z,163.13
2019-03-16T07:21:51.335Z,163.13
2019-03-16T07:22:51.369Z,174.38
2019-03-16T07:23:51.398Z,180.00
2019-03-16T07:24:51.771Z,180.00
2019-03-16T07:25:51.449Z,180.00
2019-03-16T07:26:51.570Z,185.63
2019-03-16T07:27:51.507Z,185.63
2019-03-16T07:28:51.537Z,185.63
2019-03-16T07:29:51.566Z,185.63
2019-03-16T07:30:51.598Z,196.88
2019-03-16T07:31:51.621Z,191.25
2019-03-16T07:32:51.649Z,191.25
2019-03-16T07:33:51.679Z,185.63
2019-03-16T07:34:51.708Z,180.00
2019-03-16T07:35:51.737Z,180.00
2019-03-16T07:36:51.764Z,185.63
2019-03-16T07:37:51.792Z,196.88
2019-03-16T07:38:51.822Z,196.88
2019-03-16T07:39:51.853Z,213.75
2019-03-16T07:40:51.878Z,230.63
2019-03-16T07:41:51.911Z,241.88
2019-03-16T07:42:51.943Z,258.75
2019-03-16T07:43:51.966Z,275.63
2019-03-16T07:44:52.002Z,292.50
2019-03-16T07:45:52.024Z,315.00
2019-03-16T07:46:52.053Z,326.25
2019-03-16T07:47:52.081Z,343.13
2019-03-16T07:48:52.110Z,354.38
2019-03-16T07:49:52.140Z,365.63
2019-03-16T07:50:52.173Z,382.50
2019-03-16T07:51:52.198Z,399.38
2019-03-16T07:52:52.225Z,421.88
2019-03-16T07:53:52.256Z,427.50
2019-03-16T07:54:52.284Z,421.88
2019-03-16T07:55:52.315Z,416.25
2019-03-16T07:56:52.347Z,393.75
2019-03-16T07:57:52.374Z,371.25
2019-03-16T07:58:52.403Z,337.50
2019-03-16T07:59:52.433Z,298.13
2019-03-16T08:00:52.460Z,270.00
2019-03-16T08:01:52.494Z,225.00
2019-03-16T08:02:52.522Z,191.25
2019-03-16T08:03:52.550Z,168.75
2019-03-16T08:04:52.601Z,140.63
2019-03-16T08:05:52.617Z,123.75
2019-03-16T08:06:52.641Z,135.00
2019-03-16T08:07:52.671Z,168.75
2019-03-16T08:08:52.703Z,185.63
2019-03-16T08:09:52.729Z,185.63
2019-03-16T08:10:52.761Z,191.25
2019-03-16T08:11:52.788Z,208.13
2019-03-16T08:12:52.817Z,230.63
2019-03-16T08:13:52.846Z,253.13
2019-03-16T08:14:52.877Z,270.00
2019-03-16T08:15:52.913Z,281.25
2019-03-16T08:16:52.941Z,298.13
2019-03-16T08:17:52.965Z,315.00
2019-03-16T08:18:52.998Z,331.88
2019-03-16T08:19:53.021Z,343.13
2019-03-16T08:20:53.051Z,343.13
2019-03-16T08:21:53.085Z,348.75
2019-03-16T08:22:53.117Z,360.00
2019-03-16T08:23:53.894Z,365.63
2019-03-16T08:24:53.170Z,371.25
2019-03-16T08:25:53.201Z,365.63
2019-03-16T08:26:53.228Z,360.00
2019-03-16T08:27:54.715Z,376.88
2019-03-16T08:28:53.287Z,399.38
2019-03-16T08:29:53.318Z,405.00
2019-03-16T08:30:56.607Z,382.50
2019-03-16T08:31:53.379Z,399.38
2019-03-16T08:32:53.406Z,399.38
2019-03-16T08:33:53.435Z,416.25
2019-03-16T08:34:53.465Z,427.50
2019-03-16T08:35:53.497Z,421.88
2019-03-16T08:36:53.523Z,416.25
2019-03-16T08:37:53.553Z,399.38
2019-03-16T08:38:53.582Z,376.88
2019-03-16T08:39:53.613Z,354.38
2019-03-16T08:40:53.642Z,331.88
2019-03-16T08:41:53.673Z,320.63
2019-03-16T08:42:53.702Z,326.25
2019-03-16T08:43:53.732Z,326.25
2019-03-16T08:44:53.763Z,320.63
2019-03-16T08:45:53.793Z,309.38
2019-03-16T08:46:53.819Z,298.13
2019-03-16T08:47:53.851Z,292.50
2019-03-16T08:48:53.879Z,286.88
2019-03-16T08:49:53.909Z,275.63
2019-03-16T08:50:53.937Z,275.63
2019-03-16T08:51:53.969Z,281.25
2019-03-16T08:52:54.075Z,281.25
2019-03-16T08:53:54.030Z,281.25
2019-03-16T08:54:54.059Z,292.50
2019-03-16T08:55:54.087Z,303.75
2019-03-16T08:56:54.116Z,298.13
2019-03-16T08:58:05.393Z,303.75
2019-03-16T08:58:54.175Z,315.00
2019-03-16T08:59:54.204Z,331.88
2019-03-16T09:00:54.233Z,354.38
2019-03-16T09:01:54.260Z,376.88
2019-03-16T09:02:54.297Z,388.13
2019-03-16T09:03:54.320Z,382.50
2019-03-16T09:04:54.353Z,382.50
2019-03-16T09:05:54.393Z,376.88
2019-03-16T09:06:54.408Z,393.75
2019-03-16T09:07:54.439Z,421.88
2019-03-16T09:08:54.466Z,438.75
2019-03-16T09:09:54.495Z,455.63
2019-03-16T09:10:54.529Z,478.13
2019-03-16T09:11:54.556Z,523.13
2019-03-16T09:12:55.453Z,562.50
2019-03-16T09:13:54.618Z,596.25
2019-03-16T09:14:54.644Z,635.63
2019-03-16T09:15:54.677Z,658.13
2019-03-16T09:16:54.705Z,663.75
2019-03-16T09:17:54.736Z,680.63
2019-03-16T09:18:54.761Z,697.50
2019-03-16T09:19:54.795Z,703.13
2019-03-16T09:20:54.827Z,680.63
2019-03-16T09:21:54.861Z,663.75
2019-03-16T09:22:54.886Z,652.50
2019-03-16T09:23:54.912Z,658.13
2019-03-16T09:24:54.944Z,658.13
2019-03-16T09:25:54.980Z,663.75
2019-03-16T09:26:55.005Z,658.13
2019-03-16T09:27:55.032Z,652.50
2019-03-16T09:29:00.047Z,658.13
2019-03-16T09:29:55.093Z,680.63
2019-03-16T09:30:56.519Z,686.25
2019-03-16T09:31:55.158Z,691.88
2019-03-16T09:32:55.185Z,663.75
2019-03-16T09:33:55.214Z,680.63
2019-03-16T09:34:55.247Z,731.25
2019-03-16T09:35:55.283Z,776.25
2019-03-16T09:36:55.306Z,821.25
2019-03-16T09:37:55.337Z,843.75
2019-03-16T09:38:55.369Z,866.25
2019-03-16T09:39:55.399Z,871.88
2019-03-16T09:40:55.432Z,871.88
2019-03-16T09:41:55.466Z,843.75
2019-03-16T09:42:55.490Z,810.00
2019-03-16T09:43:55.574Z,765.00
2019-03-16T09:44:55.555Z,725.63
2019-03-16T09:45:55.584Z,686.25
2019-03-16T09:46:55.626Z,663.75
2019-03-16T09:47:55.683Z,708.75
2019-03-16T09:48:55.678Z,669.38
2019-03-16T09:49:55.711Z,680.63
2019-03-16T09:50:55.747Z,680.63
2019-03-16T09:51:55.775Z,652.50
2019-03-16T09:52:55.835Z,624.38
2019-03-16T09:53:55.835Z,691.88
2019-03-16T09:54:55.871Z,742.50
2019-03-16T09:55:55.903Z,753.75
2019-03-16T09:57:01.027Z,753.75
2019-03-16T09:57:55.962Z,776.25
2019-03-16T09:58:55.996Z,753.75
2019-03-16T09:59:56.039Z,748.13
2019-03-16T10:00:56.062Z,714.38
2019-03-16T10:01:56.090Z,635.63
2019-03-16T10:02:56.124Z,624.38
2019-03-16T10:03:56.161Z,579.38
2019-03-16T10:04:56.190Z,590.63
2019-03-16T10:05:56.218Z,658.13
2019-03-16T10:06:56.253Z,658.13
2019-03-16T10:07:56.282Z,613.13
2019-03-16T10:08:56.313Z,624.38
2019-03-16T10:09:56.345Z,590.63
2019-03-16T10:10:56.382Z,545.63
2019-03-16T10:11:56.428Z,540.00
2019-03-16T10:12:56.438Z,613.13
2019-03-16T10:13:56.476Z,669.38
2019-03-16T10:14:56.509Z,736.88
2019-03-16T10:15:56.537Z,798.75
2019-03-16T10:16:56.567Z,860.63
2019-03-16T10:17:56.598Z,939.38
2019-03-16T10:18:56.631Z,843.75
2019-03-16T10:19:56.661Z,731.25
2019-03-16T10:20:56.693Z,596.25
2019-03-16T10:21:56.725Z,540.00
2019-03-16T10:22:56.761Z,495.00
2019-03-16T10:23:56.794Z,444.38
2019-03-16T10:24:56.820Z,393.75
2019-03-16T10:25:56.855Z,371.25
2019-03-16T10:26:56.885Z,360.00
2019-03-16T10:27:56.943Z,354.38
2019-03-16T10:28:56.952Z,354.38
2019-03-16T10:29:56.987Z,365.63
2019-03-16T10:30:57.014Z,399.38
2019-03-16T10:31:57.045Z,438.75
2019-03-16T10:32:57.073Z,528.75
2019-03-16T10:33:57.107Z,658.13
2019-03-16T10:34:57.137Z,781.88
2019-03-16T10:35:57.169Z,849.38
2019-03-16T10:36:57.204Z,883.13
2019-03-16T10:37:57.232Z,905.63
2019-03-16T10:38:57.271Z,894.38
2019-03-16T10:39:57.301Z,866.25
2019-03-16T10:40:57.328Z,849.38
2019-03-16T10:41:57.361Z,804.38
2019-03-16T10:42:57.389Z,770.63
2019-03-16T10:43:57.423Z,770.63
2019-03-16T10:44:57.454Z,759.38
2019-03-16T10:45:57.487Z,736.88
2019-03-16T10:46:57.527Z,697.50
2019-03-16T10:47:57.559Z,663.75
2019-03-16T10:48:57.589Z,630.00
2019-03-16T10:49:57.616Z,590.63
2019-03-16T10:50:57.648Z,506.25
2019-03-16T10:51:57.684Z,466.88
2019-03-16T10:52:57.723Z,438.75
2019-03-16T10:53:57.747Z,421.88
2019-03-16T10:54:57.777Z,472.50
2019-03-16T10:55:57.809Z,495.00
2019-03-16T10:56:57.847Z,511.88
2019-03-16T10:57:57.876Z,562.50
2019-03-16T10:58:57.913Z,613.13
2019-03-16T10:59:57.940Z,641.25
2019-03-16T11:00:57.972Z,736.88
2019-03-16T11:01:58.007Z,821.25
2019-03-16T11:02:58.033Z,984.38
2019-03-16T11:03:58.065Z,950.63
2019-03-16T11:04:58.096Z,928.13
2019-03-16T11:05:58.129Z,871.88
2019-03-16T11:06:58.165Z,753.75
2019-03-16T11:07:58.197Z,658.13
2019-03-16T11:08:58.227Z,556.88
2019-03-16T11:09:58.259Z,478.13
2019-03-16T11:10:58.294Z,433.13
2019-03-16T11:11:58.328Z,416.25
2019-03-16T11:12:58.356Z,450.00
2019-03-16T11:13:58.406Z,540.00
2019-03-16T11:14:58.424Z,703.13
2019-03-16T11:15:58.456Z,815.63
2019-03-16T11:16:58.499Z,855.00
2019-03-16T11:17:58.523Z,1063.13
2019-03-16T11:18:58.555Z,1141.88
2019-03-16T11:19:58.587Z,894.38
2019-03-16T11:20:58.627Z,776.25
2019-03-16T11:21:58.658Z,652.50
2019-03-16T11:22:58.689Z,590.63
2019-03-16T11:23:58.725Z,573.75
2019-03-16T11:24:58.757Z,556.88
2019-03-16T11:25:58.791Z,517.50
2019-03-16T11:26:58.823Z,489.38
2019-03-16T11:27:58.858Z,466.88
2019-03-16T11:29:08.535Z,450.00
2019-03-16T11:29:58.923Z,438.75
2019-03-16T11:30:58.963Z,433.13
2019-03-16T11:31:58.994Z,444.38
2019-03-16T11:32:59.028Z,455.63
2019-03-16T11:33:59.057Z,500.63
2019-03-16T11:34:59.093Z,928.13
2019-03-16T11:35:59.122Z,1220.63
2019-03-16T11:36:59.156Z,1665.00
2019-03-16T11:37:59.187Z,1659.38
2019-03-16T11:38:59.221Z,1681.88
2019-03-16T11:39:59.258Z,1417.50
2019-03-16T11:40:59.291Z,1080.00
2019-03-16T11:41:59.325Z,1085.63
2019-03-16T11:42:59.360Z,742.50
2019-03-16T11:43:59.397Z,703.13
2019-03-16T11:44:59.428Z,742.50
2019-03-16T11:45:59.459Z,714.38
2019-03-16T11:46:59.495Z,607.50
2019-03-16T11:47:59.534Z,523.13
2019-03-16T11:48:59.564Z,495.00
2019-03-16T11:49:59.601Z,461.25
2019-03-16T11:50:59.633Z,382.50
2019-03-16T11:51:59.668Z,298.13
2019-03-16T11:52:59.705Z,230.63
2019-03-16T11:53:59.739Z,196.88
2019-03-16T11:54:59.780Z,230.63
2019-03-16T11:55:59.805Z,270.00
2019-03-16T11:56:59.839Z,292.50
2019-03-16T11:57:59.877Z,309.38
2019-03-16T11:58:59.906Z,331.88
2019-03-16T11:59:59.940Z,348.75
2019-03-16T12:00:59.973Z,354.38
2019-03-16T12:02:05.286Z,393.75
2019-03-16T12:03:00.049Z,461.25
2019-03-16T12:04:00.067Z,540.00
2019-03-16T12:05:00.196Z,585.00
2019-03-16T12:06:00.130Z,613.13
2019-03-16T12:07:00.164Z,624.38
2019-03-16T12:08:00.197Z,601.88
2019-03-16T12:09:00.226Z,596.25
2019-03-16T12:10:00.260Z,1074.38
2019-03-16T12:11:00.292Z,984.38
2019-03-16T12:12:00.325Z,961.88
2019-03-16T12:13:00.358Z,990.00
2019-03-16T12:14:00.389Z,759.38
2019-03-16T12:15:00.507Z,652.50
2019-03-16T12:16:00.454Z,556.88
2019-03-16T12:17:00.486Z,450.00
2019-03-16T12:18:00.517Z,410.63
2019-03-16T12:19:00.550Z,388.13
2019-03-16T12:20:00.584Z,331.88
2019-03-16T12:21:00.614Z,236.25
2019-03-16T12:22:00.647Z,213.75
2019-03-16T12:23:00.685Z,202.50
2019-03-16T12:24:00.715Z,241.88
2019-03-16T12:25:00.750Z,343.13
2019-03-16T12:26:00.778Z,528.75
2019-03-16T12:27:00.811Z,641.25
2019-03-16T12:28:00.842Z,618.75
2019-03-16T12:29:00.883Z,573.75
2019-03-16T12:30:00.910Z,540.00
2019-03-16T12:31:00.940Z,489.38
2019-03-16T12:32:00.968Z,450.00
2019-03-16T12:33:01.000Z,399.38
2019-03-16T12:34:01.034Z,343.13
2019-03-16T12:35:01.066Z,270.00
2019-03-16T12:36:01.098Z,202.50
2019-03-16T12:37:01.125Z,163.13
2019-03-16T12:38:01.156Z,135.00
2019-03-16T12:39:01.188Z,118.13
2019-03-16T12:40:01.224Z,112.50
2019-03-16T12:41:01.248Z,112.50
2019-03-16T12:42:01.282Z,112.50
2019-03-16T12:43:01.313Z,112.50
2019-03-16T12:44:01.359Z,112.50
2019-03-16T12:45:01.374Z,112.50
2019-03-16T12:46:01.401Z,112.50
2019-03-16T12:47:01.432Z,123.75
2019-03-16T12:48:01.461Z,129.38
2019-03-16T12:49:01.492Z,140.63